sensor_id;sensor_type;location;lat;lon;timestamp;pressure;altitude;pressure_sealevel;temperature;humidity
18652;BME280;9455;54.302;10.124;2024-03-07T00:02:13;102903.34;;;5.02;100.00
18652;BME280;9455;54.302;10.124;2024-03-07T00:04:42;102899.03;;;4.99;100.00
18652;BME280;9455;54.302;10.124;2024-03-07T00:07:09;102904.41;;;4.96;100.00
18652;BME280;9455;54.302;10.124;2024-03-07T00:09:35;102908.88;;;4.94;100.00
18652;BME280;9455;54.302;10.124;2024-03-07T00:12:02;102907.22;;;4.90;100.00
18652;BME280;9455;54.302;10.124;2024-03-07T00:14:29;102909.69;;;4.96;100.00
18652;BME280;9455;54.302;10.124;2024-03-07T00:16:58;102913.03;;;5.03;100.00
18652;BME280;9455;54.302;10.124;2024-03-07T00:19:25;102915.56;;;4.77;100.00
18652;BME280;9455;54.302;10.124;2024-03-07T00:21:52;102910.31;;;4.75;100.00
18652;BME280;9455;54.302;10.124;2024-03-07T00:24:18;102905.03;;;4.75;100.00
18652;BME280;9455;54.302;10.124;2024-03-07T00:26:44;102918.00;;;4.84;100.00
18652;BME280;9455;54.302;10.124;2024-03-07T00:29:11;102909.16;;;4.85;100.00
18652;BME280;9455;54.302;10.124;2024-03-07T00:31:38;102905.03;;;4.75;100.00
18652;BME280;9455;54.302;10.124;2024-03-07T00:34:05;102904.66;;;4.89;100.00
18652;BME280;9455;54.302;10.124;2024-03-07T00:36:32;102903.44;;;4.70;100.00
18652;BME280;9455;54.302;10.124;2024-03-07T00:38:58;102897.69;;;4.85;100.00
18652;BME280;9455;54.302;10.124;2024-03-07T00:41:25;102896.75;;;4.87;100.00
18652;BME280;9455;54.302;10.124;2024-03-07T00:43:52;102898.66;;;4.82;100.00
18652;BME280;9455;54.302;10.124;2024-03-07T00:46:18;102892.59;;;4.79;100.00
18652;BME280;9455;54.302;10.124;2024-03-07T00:48:45;102892.28;;;4.89;100.00
18652;BME280;9455;54.302;10.124;2024-03-07T00:51:13;102889.13;;;4.77;100.00
18652;BME280;9455;54.302;10.124;2024-03-07T00:53:40;102892.38;;;4.86;100.00
18652;BME280;9455;54.302;10.124;2024-03-07T00:56:06;102894.63;;;5.00;100.00
18652;BME280;9455;54.302;10.124;2024-03-07T00:58:33;102894.13;;;4.87;100.00
18652;BME280;9455;54.302;10.124;2024-03-07T01:01:00;102894.38;;;4.78;100.00
18652;BME280;9455;54.302;10.124;2024-03-07T01:03:28;102890.59;;;4.87;100.00
18652;BME280;9455;54.302;10.124;2024-03-07T01:05:54;102889.72;;;4.86;100.00
18652;BME280;9455;54.302;10.124;2024-03-07T01:08:22;102889.63;;;4.89;100.00
18652;BME280;9455;54.302;10.124;2024-03-07T01:10:49;102893.03;;;4.94;100.00
18652;BME280;9455;54.302;10.124;2024-03-07T01:13:15;102878.81;;;4.98;100.00
18652;BME280;9455;54.302;10.124;2024-03-07T01:15:45;102883.53;;;4.87;100.00
18652;BME280;9455;54.302;10.124;2024-03-07T01:18:13;102891.28;;;4.93;100.00
18652;BME280;9455;54.302;10.124;2024-03-07T01:20:40;102882.75;;;4.84;100.00
18652;BME280;9455;54.302;10.124;2024-03-07T01:23:07;102883.03;;;5.04;100.00
18652;BME280;9455;54.302;10.124;2024-03-07T01:25:35;102883.28;;;4.95;100.00
18652;BME280;9455;54.302;10.124;2024-03-07T01:28:02;102886.94;;;4.91;100.00
18652;BME280;9455;54.302;10.124;2024-03-07T01:30:29;102884.84;;;5.02;100.00
18652;BME280;9455;54.302;10.124;2024-03-07T01:32:56;102880.06;;;4.85;100.00
18652;BME280;9455;54.302;10.124;2024-03-07T01:35:23;102880.94;;;4.86;100.00
18652;BME280;9455;54.302;10.124;2024-03-07T01:37:49;102872.06;;;4.88;100.00
18652;BME280;9455;54.302;10.124;2024-03-07T01:40:16;102876.31;;;4.92;100.00
18652;BME280;9455;54.302;10.124;2024-03-07T01:42:46;102875.28;;;4.98;100.00
18652;BME280;9455;54.302;10.124;2024-03-07T01:45:13;102885.41;;;4.84;100.00
18652;BME280;9455;54.302;10.124;2024-03-07T01:47:40;102879.16;;;4.86;100.00
18652;BME280;9455;54.302;10.124;2024-03-07T01:50:07;102878.22;;;4.89;100.00
18652;BME280;9455;54.302;10.124;2024-03-07T01:52:34;102880.31;;;4.76;100.00
18652;BME280;9455;54.302;10.124;2024-03-07T01:55:01;102875.78;;;4.81;100.00
18652;BME280;9455;54.302;10.124;2024-03-07T01:57:28;102877.44;;;4.85;100.00
18652;BME280;9455;54.302;10.124;2024-03-07T01:59:56;102882.28;;;4.70;100.00
18652;BME280;9455;54.302;10.124;2024-03-07T02:02:23;102880.56;;;4.69;100.00
18652;BME280;9455;54.302;10.124;2024-03-07T02:04:49;102876.25;;;4.66;100.00
18652;BME280;9455;54.302;10.124;2024-03-07T02:07:16;102876.25;;;4.66;100.00
18652;BME280;9455;54.302;10.124;2024-03-07T02:09:43;102868.09;;;4.43;100.00
18652;BME280;9455;54.302;10.124;2024-03-07T02:12:09;102873.06;;;4.54;100.00
18652;BME280;9455;54.302;10.124;2024-03-07T02:14:36;102871.75;;;4.39;100.00
18652;BME280;9455;54.302;10.124;2024-03-07T02:17:04;102875.19;;;4.41;100.00
18652;BME280;9455;54.302;10.124;2024-03-07T02:19:30;102871.47;;;4.48;100.00
18652;BME280;9455;54.302;10.124;2024-03-07T02:21:58;102869.06;;;4.41;100.00
18652;BME280;9455;54.302;10.124;2024-03-07T02:24:25;102869.19;;;4.36;100.00
18652;BME280;9455;54.302;10.124;2024-03-07T02:26:52;102872.69;;;4.37;100.00
18652;BME280;9455;54.302;10.124;2024-03-07T02:29:18;102868.63;;;4.25;100.00
18652;BME280;9455;54.302;10.124;2024-03-07T02:31:45;102866.69;;;4.30;100.00
18652;BME280;9455;54.302;10.124;2024-03-07T02:34:12;102865.72;;;4.34;100.00
18652;BME280;9455;54.302;10.124;2024-03-07T02:36:39;102865.09;;;4.25;100.00
18652;BME280;9455;54.302;10.124;2024-03-07T02:39:06;102867.59;;;4.31;100.00
18652;BME280;9455;54.302;10.124;2024-03-07T02:41:35;102863.16;;;4.31;100.00
18652;BME280;9455;54.302;10.124;2024-03-07T02:44:01;102862.81;;;4.43;100.00
18652;BME280;9455;54.302;10.124;2024-03-07T02:46:29;102863.53;;;4.48;100.00
18652;BME280;9455;54.302;10.124;2024-03-07T02:48:57;102862.22;;;4.34;100.00
18652;BME280;9455;54.302;10.124;2024-03-07T02:51:24;102861.78;;;4.18;100.00
18652;BME280;9455;54.302;10.124;2024-03-07T02:53:51;102868.63;;;4.25;100.00
18652;BME280;9455;54.302;10.124;2024-03-07T02:56:19;102863.88;;;4.06;100.00
18652;BME280;9455;54.302;10.124;2024-03-07T02:58:45;102868.84;;;4.16;100.00
18652;BME280;9455;54.302;10.124;2024-03-07T03:01:12;102864.56;;;4.12;100.00
18652;BME280;9455;54.302;10.124;2024-03-07T03:03:38;102870.56;;;4.17;100.00
18652;BME280;9455;54.302;10.124;2024-03-07T03:06:07;102856.97;;;4.00;100.00
18652;BME280;9455;54.302;10.124;2024-03-07T03:08:34;102864.06;;;3.98;100.00
18652;BME280;9455;54.302;10.124;2024-03-07T03:11:01;102867.81;;;3.90;100.00
18652;BME280;9455;54.302;10.124;2024-03-07T03:13:30;102870.34;;;3.94;100.00
18652;BME280;9455;54.302;10.124;2024-03-07T03:15:57;102864.38;;;3.86;100.00
18652;BME280;9455;54.302;10.124;2024-03-07T03:18:23;102871.56;;;3.81;100.00
18652;BME280;9455;54.302;10.124;2024-03-07T03:20:50;102869.91;;;3.77;100.00
18652;BME280;9455;54.302;10.124;2024-03-07T03:23:18;102862.44;;;3.94;100.00
18652;BME280;9455;54.302;10.124;2024-03-07T03:25:46;102858.41;;;3.80;100.00
18652;BME280;9455;54.302;10.124;2024-03-07T03:28:13;102861.06;;;3.78;100.00
18652;BME280;9455;54.302;10.124;2024-03-07T03:30:41;102858.47;;;3.77;100.00
18652;BME280;9455;54.302;10.124;2024-03-07T03:33:08;102858.88;;;3.95;100.00
18652;BME280;9455;54.302;10.124;2024-03-07T03:35:36;102859.88;;;3.91;100.00
18652;BME280;9455;54.302;10.124;2024-03-07T03:38:03;102864.56;;;3.80;100.00
18652;BME280;9455;54.302;10.124;2024-03-07T03:40:30;102858.72;;;4.01;100.00
18652;BME280;9455;54.302;10.124;2024-03-07T03:42:56;102856.28;;;3.94;100.00
18652;BME280;9455;54.302;10.124;2024-03-07T03:45:23;102867.63;;;3.97;100.00
18652;BME280;9455;54.302;10.124;2024-03-07T03:47:52;102862.72;;;3.82;100.00
18652;BME280;9455;54.302;10.124;2024-03-07T03:50:19;102864.25;;;3.91;100.00
18652;BME280;9455;54.302;10.124;2024-03-07T03:52:45;102866.78;;;3.95;100.00
18652;BME280;9455;54.302;10.124;2024-03-07T03:55:12;102865.06;;;3.94;100.00
18652;BME280;9455;54.302;10.124;2024-03-07T03:57:40;102866.72;;;3.98;100.00
18652;BME280;9455;54.302;10.124;2024-03-07T04:00:09;102862.25;;;4.00;100.00
18652;BME280;9455;54.302;10.124;2024-03-07T04:02:38;102862.44;;;3.94;100.00
18652;BME280;9455;54.302;10.124;2024-03-07T04:05:07;102859.78;;;3.94;100.00
18652;BME280;9455;54.302;10.124;2024-03-07T04:07:34;102860.47;;;4.01;100.00
18652;BME280;9455;54.302;10.124;2024-03-07T04:10:02;102859.56;;;4.02;100.00
18652;BME280;9455;54.302;10.124;2024-03-07T04:12:29;102854.41;;;3.99;100.00
18652;BME280;9455;54.302;10.124;2024-03-07T04:14:56;102856.13;;;4.00;100.00
18652;BME280;9455;54.302;10.124;2024-03-07T04:17:22;102855.25;;;3.99;100.00
18652;BME280;9455;54.302;10.124;2024-03-07T04:19:49;102854.41;;;3.99;100.00
18652;BME280;9455;54.302;10.124;2024-03-07T04:22:18;102854.75;;;4.17;100.00
18652;BME280;9455;54.302;10.124;2024-03-07T04:24:45;102855.09;;;4.05;100.00
18652;BME280;9455;54.302;10.124;2024-03-07T04:27:11;102854.28;;;4.02;100.00
18652;BME280;9455;54.302;10.124;2024-03-07T04:29:38;102852.88;;;3.90;100.00
18652;BME280;9455;54.302;10.124;2024-03-07T04:32:05;102847.63;;;3.89;100.00
18652;BME280;9455;54.302;10.124;2024-03-07T04:34:32;102848.66;;;3.83;100.00
18652;BME280;9455;54.302;10.124;2024-03-07T04:36:58;102848.19;;;4.00;100.00
18652;BME280;9455;54.302;10.124;2024-03-07T04:39:27;102845.22;;;3.80;100.00
18652;BME280;9455;54.302;10.124;2024-03-07T04:41:57;102848.38;;;3.92;100.00
18652;BME280;9455;54.302;10.124;2024-03-07T04:44:25;102853.94;;;3.83;100.00
18652;BME280;9455;54.302;10.124;2024-03-07T04:46:52;102847.16;;;3.73;100.00
18652;BME280;9455;54.302;10.124;2024-03-07T04:49:21;102840.13;;;3.72;100.00
18652;BME280;9455;54.302;10.124;2024-03-07T04:51:48;102842.03;;;3.67;100.00
18652;BME280;9455;54.302;10.124;2024-03-07T04:54:15;102838.41;;;3.71;100.00
18652;BME280;9455;54.302;10.124;2024-03-07T04:56:43;102830.59;;;3.67;100.00
18652;BME280;9455;54.302;10.124;2024-03-07T04:59:09;102833.47;;;3.58;100.00
18652;BME280;9455;54.302;10.124;2024-03-07T05:01:37;102840.59;;;3.54;100.00
18652;BME280;9455;54.302;10.124;2024-03-07T05:04:03;102837.16;;;3.52;100.00
18652;BME280;9455;54.302;10.124;2024-03-07T05:06:31;102840.84;;;3.45;100.00
18652;BME280;9455;54.302;10.124;2024-03-07T05:08:59;102838.94;;;3.50;100.00
18652;BME280;9455;54.302;10.124;2024-03-07T05:11:26;102834.31;;;3.23;100.00
18652;BME280;9455;54.302;10.124;2024-03-07T05:13:54;102840.50;;;3.22;100.00
18652;BME280;9455;54.302;10.124;2024-03-07T05:16:21;102837.16;;;3.16;100.00
18652;BME280;9455;54.302;10.124;2024-03-07T05:18:47;102841.63;;;3.12;100.00
18652;BME280;9455;54.302;10.124;2024-03-07T05:21:15;102844.16;;;3.17;100.00
18652;BME280;9455;54.302;10.124;2024-03-07T05:24:04;102861.00;;;3.11;100.00
18652;BME280;9455;54.302;10.124;2024-03-07T05:26:32;102848.56;;;3.16;100.00
18652;BME280;9455;54.302;10.124;2024-03-07T05:29:02;102859.84;;;3.23;100.00
18652;BME280;9455;54.302;10.124;2024-03-07T05:31:33;102857.19;;;3.24;100.00
18652;BME280;9455;54.302;10.124;2024-03-07T05:34:00;102846.47;;;3.30;100.00
18652;BME280;9455;54.302;10.124;2024-03-07T05:36:29;102858.56;;;3.39;100.00
18652;BME280;9455;54.302;10.124;2024-03-07T05:38:56;102857.47;;;3.47;100.00
18652;BME280;9455;54.302;10.124;2024-03-07T05:41:23;102861.84;;;3.48;100.00
18652;BME280;9455;54.302;10.124;2024-03-07T05:43:49;102867.00;;;3.53;100.00
18652;BME280;9455;54.302;10.124;2024-03-07T05:46:17;102865.47;;;3.44;100.00
18652;BME280;9455;54.302;10.124;2024-03-07T05:48:45;102863.38;;;3.57;100.00
18652;BME280;9455;54.302;10.124;2024-03-07T05:51:15;102862.16;;;3.36;100.00
18652;BME280;9455;54.302;10.124;2024-03-07T05:53:42;102859.47;;;3.38;100.00
18652;BME280;9455;54.302;10.124;2024-03-07T05:56:08;102861.25;;;3.36;100.00
18652;BME280;9455;54.302;10.124;2024-03-07T05:58:35;102868.03;;;3.47;100.00
18652;BME280;9455;54.302;10.124;2024-03-07T06:01:02;102861.56;;;3.60;100.00
18652;BME280;9455;54.302;10.124;2024-03-07T06:03:30;102859.91;;;3.56;100.00
18652;BME280;9455;54.302;10.124;2024-03-07T06:05:57;102863.16;;;3.66;100.00
18652;BME280;9455;54.302;10.124;2024-03-07T06:08:24;102870.34;;;3.61;100.00
18652;BME280;9455;54.302;10.124;2024-03-07T06:10:50;102867.50;;;3.68;100.00
18652;BME280;9455;54.302;10.124;2024-03-07T06:13:17;102864.84;;;3.68;100.00
18652;BME280;9455;54.302;10.124;2024-03-07T06:15:44;102869.56;;;3.56;100.00
18652;BME280;9455;54.302;10.124;2024-03-07T06:18:11;102875.63;;;3.61;100.00
18652;BME280;9455;54.302;10.124;2024-03-07T06:20:40;102877.38;;;3.60;100.00
18652;BME280;9455;54.302;10.124;2024-03-07T06:23:07;102876.09;;;3.76;100.00
18652;BME280;9455;54.302;10.124;2024-03-07T06:25:34;102880.47;;;3.77;100.00
18652;BME280;9455;54.302;10.124;2024-03-07T06:28:03;102878.63;;;3.79;100.00
18652;BME280;9455;54.302;10.124;2024-03-07T06:30:36;102883.66;;;3.90;100.00
18652;BME280;9455;54.302;10.124;2024-03-07T06:33:04;102877.78;;;3.79;100.00
18652;BME280;9455;54.302;10.124;2024-03-07T06:35:31;102879.28;;;3.89;100.00
18652;BME280;9455;54.302;10.124;2024-03-07T06:38:03;102880.19;;;3.88;100.00
18652;BME280;9455;54.302;10.124;2024-03-07T06:40:30;102882.13;;;4.13;100.00
18652;BME280;9455;54.302;10.124;2024-03-07T06:42:58;102881.25;;;4.14;100.00
18652;BME280;9455;54.302;10.124;2024-03-07T06:45:25;102884.03;;;4.08;100.00
18652;BME280;9455;54.302;10.124;2024-03-07T06:47:51;102879.34;;;4.19;100.00
18652;BME280;9455;54.302;10.124;2024-03-07T06:50:18;102875.78;;;4.20;100.00
18652;BME280;9455;54.302;10.124;2024-03-07T06:52:46;102882.22;;;4.10;100.00
18652;BME280;9455;54.302;10.124;2024-03-07T06:55:15;102873.97;;;4.22;100.00
18652;BME280;9455;54.302;10.124;2024-03-07T06:57:43;102873.84;;;4.27;100.00
18652;BME280;9455;54.302;10.124;2024-03-07T07:00:11;102875.63;;;4.26;100.00
18652;BME280;9455;54.302;10.124;2024-03-07T07:02:38;102875.59;;;4.28;100.00
18652;BME280;9455;54.302;10.124;2024-03-07T07:05:06;102872.63;;;4.38;100.00
18652;BME280;9455;54.302;10.124;2024-03-07T07:07:36;102870.34;;;4.57;100.00
18652;BME280;9455;54.302;10.124;2024-03-07T07:10:04;102868.75;;;4.51;100.00
18652;BME280;9455;54.302;10.124;2024-03-07T07:12:35;102870.41;;;4.54;100.00
18652;BME280;9455;54.302;10.124;2024-03-07T07:15:02;102866.84;;;4.56;100.00
18652;BME280;9455;54.302;10.124;2024-03-07T07:17:30;102874.84;;;4.53;100.00
18652;BME280;9455;54.302;10.124;2024-03-07T07:19:57;102870.41;;;4.54;100.00
18652;BME280;9455;54.302;10.124;2024-03-07T07:22:25;102864.97;;;4.60;100.00
18652;BME280;9455;54.302;10.124;2024-03-07T07:24:52;102867.50;;;4.64;100.00
18652;BME280;9455;54.302;10.124;2024-03-07T07:27:18;102876.09;;;4.71;100.00
18652;BME280;9455;54.302;10.124;2024-03-07T07:29:46;102872.44;;;4.46;100.00
18652;BME280;9455;54.302;10.124;2024-03-07T07:32:13;102875.97;;;4.75;100.00
18652;BME280;9455;54.302;10.124;2024-03-07T07:34:40;102872.53;;;4.73;100.00
18652;BME280;9455;54.302;10.124;2024-03-07T07:37:08;102881.06;;;4.81;100.00
18652;BME280;9455;54.302;10.124;2024-03-07T07:39:35;102873.03;;;4.86;100.00
18652;BME280;9455;54.302;10.124;2024-03-07T07:42:01;102867.91;;;4.80;100.00
18652;BME280;9455;54.302;10.124;2024-03-07T07:44:28;102867.78;;;4.84;100.00
18652;BME280;9455;54.302;10.124;2024-03-07T07:46:56;102864.03;;;4.91;100.00
18652;BME280;9455;54.302;10.124;2024-03-07T07:49:23;102877.53;;;5.11;100.00
18652;BME280;9455;54.302;10.124;2024-03-07T07:51:49;102861.34;;;4.93;100.00
18652;BME280;9455;54.302;10.124;2024-03-07T07:54:16;102861.47;;;4.88;100.00
18652;BME280;9455;54.302;10.124;2024-03-07T07:56:43;102858.63;;;4.96;100.00
18652;BME280;9455;54.302;10.124;2024-03-07T07:59:10;102860.91;;;5.06;100.00
18652;BME280;9455;54.302;10.124;2024-03-07T08:01:36;102861.59;;;5.13;100.00
18652;BME280;9455;54.302;10.124;2024-03-07T08:04:05;102857.25;;;5.10;100.00
18652;BME280;9455;54.302;10.124;2024-03-07T08:06:33;102859.19;;;5.05;100.00
18652;BME280;9455;54.302;10.124;2024-03-07T08:09:00;102843.00;;;5.14;100.00
18652;BME280;9455;54.302;10.124;2024-03-07T08:11:27;102850.63;;;5.25;100.00
18652;BME280;9455;54.302;10.124;2024-03-07T08:13:53;102844.38;;;5.27;100.00
18652;BME280;9455;54.302;10.124;2024-03-07T08:16:20;102848.63;;;5.31;100.00
18652;BME280;9455;54.302;10.124;2024-03-07T08:18:46;102851.03;;;5.39;100.00
18652;BME280;9455;54.302;10.124;2024-03-07T08:21:14;102847.53;;;5.38;100.00
18652;BME280;9455;54.302;10.124;2024-03-07T08:23:41;102848.13;;;5.48;100.00
18652;BME280;9455;54.302;10.124;2024-03-07T08:26:08;102854.25;;;5.48;100.00
18652;BME280;9455;54.302;10.124;2024-03-07T08:28:34;102847.94;;;5.78;100.00
18652;BME280;9455;54.302;10.124;2024-03-07T08:31:01;102850.50;;;5.55;100.00
18652;BME280;9455;54.302;10.124;2024-03-07T08:33:27;102853.97;;;5.57;100.00
18652;BME280;9455;54.302;10.124;2024-03-07T08:35:54;102855.72;;;5.31;100.00
18652;BME280;9455;54.302;10.124;2024-03-07T08:38:22;102857.81;;;5.47;100.00
18652;BME280;9455;54.302;10.124;2024-03-07T08:40:49;102855.41;;;5.67;100.00
18652;BME280;9455;54.302;10.124;2024-03-07T08:43:15;102855.16;;;5.73;100.00
18652;BME280;9455;54.302;10.124;2024-03-07T08:45:42;102859.34;;;5.54;100.00
18652;BME280;9455;54.302;10.124;2024-03-07T08:48:08;102858.47;;;5.54;100.00
18652;BME280;9455;54.302;10.124;2024-03-07T08:50:35;102850.13;;;5.40;100.00
18652;BME280;9455;54.302;10.124;2024-03-07T08:53:03;102847.09;;;5.24;100.00
18652;BME280;9455;54.302;10.124;2024-03-07T08:55:32;102857.88;;;5.46;100.00
18652;BME280;9455;54.302;10.124;2024-03-07T08:58:01;102854.56;;;5.39;100.00
18652;BME280;9455;54.302;10.124;2024-03-07T09:00:27;102856.78;;;5.25;100.00
18652;BME280;9455;54.302;10.124;2024-03-07T09:02:55;102854.66;;;5.36;100.00
18652;BME280;9455;54.302;10.124;2024-03-07T09:05:23;102856.34;;;5.39;100.00
18652;BME280;9455;54.302;10.124;2024-03-07T09:07:51;102862.59;;;5.36;100.00
18652;BME280;9455;54.302;10.124;2024-03-07T09:10:18;102856.47;;;5.34;100.00
18652;BME280;9455;54.302;10.124;2024-03-07T09:12:48;102856.84;;;5.24;100.00
18652;BME280;9455;54.302;10.124;2024-03-07T09:15:15;102858.44;;;5.55;100.00
18652;BME280;9455;54.302;10.124;2024-03-07T09:17:43;102859.06;;;5.36;100.00
18652;BME280;9455;54.302;10.124;2024-03-07T09:20:10;102865.16;;;5.39;100.00
18652;BME280;9455;54.302;10.124;2024-03-07T09:22:39;102861.59;;;5.40;100.00
18652;BME280;9455;54.302;10.124;2024-03-07T09:25:07;102862.69;;;5.59;100.00
18652;BME280;9455;54.302;10.124;2024-03-07T09:27:34;102858.06;;;5.40;100.00
18652;BME280;9455;54.302;10.124;2024-03-07T09:30:02;102849.97;;;5.44;100.00
18652;BME280;9455;54.302;10.124;2024-03-07T09:32:29;102849.66;;;5.27;100.00
18652;BME280;9455;54.302;10.124;2024-03-07T09:34:58;102857.16;;;5.41;100.00
18652;BME280;9455;54.302;10.124;2024-03-07T09:37:25;102861.34;;;5.48;100.00
18652;BME280;9455;54.302;10.124;2024-03-07T09:39:52;102844.91;;;5.64;100.00
18652;BME280;9455;54.302;10.124;2024-03-07T09:42:19;102854.56;;;5.39;100.00
18652;BME280;9455;54.302;10.124;2024-03-07T09:44:48;102848.88;;;5.51;100.00
18652;BME280;9455;54.302;10.124;2024-03-07T09:47:17;102862.09;;;5.51;100.00
18652;BME280;9455;54.302;10.124;2024-03-07T09:49:45;102854.84;;;5.58;100.00
18652;BME280;9455;54.302;10.124;2024-03-07T09:52:13;102860.19;;;5.56;100.00
18652;BME280;9455;54.302;10.124;2024-03-07T09:54:40;102846.66;;;5.64;100.00
18652;BME280;9455;54.302;10.124;2024-03-07T09:57:07;102857.63;;;5.53;100.00
18652;BME280;9455;54.302;10.124;2024-03-07T09:59:35;102856.91;;;5.48;100.00
18652;BME280;9455;54.302;10.124;2024-03-07T10:02:03;102857.91;;;5.44;100.00
18652;BME280;9455;54.302;10.124;2024-03-07T10:04:37;102853.63;;;5.66;100.00
18652;BME280;9455;54.302;10.124;2024-03-07T10:07:06;102844.81;;;5.67;100.00
18652;BME280;9455;54.302;10.124;2024-03-07T10:09:37;102856.72;;;5.81;100.00
18652;BME280;9455;54.302;10.124;2024-03-07T10:12:06;102838.38;;;6.01;100.00
18652;BME280;9455;54.302;10.124;2024-03-07T10:14:35;102848.38;;;5.93;100.00
18652;BME280;9455;54.302;10.124;2024-03-07T10:17:02;102850.03;;;5.95;100.00
18652;BME280;9455;54.302;10.124;2024-03-07T10:19:30;102850.56;;;6.05;100.00
18652;BME280;9455;54.302;10.124;2024-03-07T10:21:58;102849.72;;;6.04;100.00
18652;BME280;9455;54.302;10.124;2024-03-07T10:24:27;102850.38;;;6.11;100.00
18652;BME280;9455;54.302;10.124;2024-03-07T10:26:54;102857.56;;;6.07;100.00
18652;BME280;9455;54.302;10.124;2024-03-07T10:29:23;102856.22;;;5.96;100.00
18652;BME280;9455;54.302;10.124;2024-03-07T10:31:50;102849.44;;;6.12;100.00
18652;BME280;9455;54.302;10.124;2024-03-07T10:34:17;102845.03;;;6.12;100.00
18652;BME280;9455;54.302;10.124;2024-03-07T10:36:44;102845.59;;;6.20;100.00
18652;BME280;9455;54.302;10.124;2024-03-07T10:39:12;102842.09;;;6.20;100.00
18652;BME280;9455;54.302;10.124;2024-03-07T10:41:44;102842.78;;;6.25;100.00
18652;BME280;9455;54.302;10.124;2024-03-07T10:44:19;102841.41;;;6.15;100.00
18652;BME280;9455;54.302;10.124;2024-03-07T10:46:52;102853.19;;;6.31;100.00
18652;BME280;9455;54.302;10.124;2024-03-07T10:49:20;102847.19;;;6.26;100.00
18652;BME280;9455;54.302;10.124;2024-03-07T10:51:56;102840.28;;;6.45;100.00
18652;BME280;9455;54.302;10.124;2024-03-07T10:54:33;102843.56;;;6.51;100.00
18652;BME280;9455;54.302;10.124;2024-03-07T10:57:11;102828.09;;;6.64;100.00
18652;BME280;9455;54.302;10.124;2024-03-07T10:59:43;102841.59;;;6.79;100.00
18652;BME280;9455;54.302;10.124;2024-03-07T11:02:17;102830.94;;;6.81;100.00
18652;BME280;9455;54.302;10.124;2024-03-07T11:04:47;102839.16;;;6.75;100.00
18652;BME280;9455;54.302;10.124;2024-03-07T11:07:15;102836.28;;;7.02;100.00
18652;BME280;9455;54.302;10.124;2024-03-07T11:09:43;102832.53;;;7.08;100.00
18652;BME280;9455;54.302;10.124;2024-03-07T11:12:12;102825.25;;;7.13;100.00
18652;BME280;9455;54.302;10.124;2024-03-07T11:14:40;102827.59;;;7.20;100.00
18652;BME280;9455;54.302;10.124;2024-03-07T11:17:06;102828.66;;;7.38;100.00
18652;BME280;9455;54.302;10.124;2024-03-07T11:19:34;102820.69;;;7.16;100.00
18652;BME280;9455;54.302;10.124;2024-03-07T11:22:03;102825.47;;;7.50;100.00
18652;BME280;9455;54.302;10.124;2024-03-07T11:24:40;102821.69;;;7.14;100.00
18652;BME280;9455;54.302;10.124;2024-03-07T11:27:10;102829.19;;;7.03;100.00
18652;BME280;9455;54.302;10.124;2024-03-07T11:29:40;102830.28;;;7.19;100.00
18652;BME280;9455;54.302;10.124;2024-03-07T11:32:08;102823.41;;;7.15;100.00
18652;BME280;9455;54.302;10.124;2024-03-07T11:34:38;102820.09;;;7.31;100.00
18652;BME280;9455;54.302;10.124;2024-03-07T11:37:07;102814.78;;;7.10;100.00
18652;BME280;9455;54.302;10.124;2024-03-07T11:39:43;102811.47;;;7.46;100.00
18652;BME280;9455;54.302;10.124;2024-03-07T11:42:22;102814.88;;;7.70;100.00
18652;BME280;9455;54.302;10.124;2024-03-07T11:44:50;102822.84;;;7.70;100.00
18652;BME280;9455;54.302;10.124;2024-03-07T11:47:17;102810.94;;;7.17;100.00
18652;BME280;9455;54.302;10.124;2024-03-07T11:49:44;102803.50;;;7.46;100.00
18652;BME280;9455;54.302;10.124;2024-03-07T11:52:14;102800.28;;;7.60;100.00
18652;BME280;9455;54.302;10.124;2024-03-07T11:54:42;102805.44;;;7.63;100.00
18652;BME280;9455;54.302;10.124;2024-03-07T11:57:12;102803.41;;;7.49;100.00
18652;BME280;9455;54.302;10.124;2024-03-07T11:59:41;102791.94;;;7.69;100.00
18652;BME280;9455;54.302;10.124;2024-03-07T12:02:12;102798.69;;;7.76;100.00
18652;BME280;9455;54.302;10.124;2024-03-07T12:04:39;102791.25;;;7.84;100.00
18652;BME280;9455;54.302;10.124;2024-03-07T12:07:06;102790.72;;;7.76;100.00
18652;BME280;9455;54.302;10.124;2024-03-07T12:09:36;102787.25;;;7.74;100.00
18652;BME280;9455;54.302;10.124;2024-03-07T12:12:03;102782.94;;;7.71;100.00
18652;BME280;9455;54.302;10.124;2024-03-07T12:14:30;102781.31;;;7.69;100.00
18652;BME280;9455;54.302;10.124;2024-03-07T12:17:00;102779.16;;;7.57;100.00
18652;BME280;9455;54.302;10.124;2024-03-07T12:19:30;102773.66;;;7.81;100.00
18652;BME280;9455;54.302;10.124;2024-03-07T12:21:59;102774.78;;;7.56;100.00
18652;BME280;9455;54.302;10.124;2024-03-07T12:24:26;102767.72;;;7.95;100.00
18652;BME280;9455;54.302;10.124;2024-03-07T12:26:52;102776.31;;;8.01;100.00
18652;BME280;9455;54.302;10.124;2024-03-07T12:29:25;102762.66;;;8.09;100.00
18652;BME280;9455;54.302;10.124;2024-03-07T12:31:52;102767.22;;;8.07;100.00
18652;BME280;9455;54.302;10.124;2024-03-07T12:34:21;102767.97;;;8.09;100.00
18652;BME280;9455;54.302;10.124;2024-03-07T12:36:51;102766.16;;;7.91;100.00
18652;BME280;9455;54.302;10.124;2024-03-07T12:39:22;102766.03;;;7.94;100.00
18652;BME280;9455;54.302;10.124;2024-03-07T12:41:51;102766.06;;;8.12;100.00
18652;BME280;9455;54.302;10.124;2024-03-07T12:44:19;102764.81;;;7.81;100.00
18652;BME280;9455;54.302;10.124;2024-03-07T12:46:46;102758.19;;;7.91;100.00
18652;BME280;9455;54.302;10.124;2024-03-07T12:49:13;102752.69;;;7.75;100.00
18652;BME280;9455;54.302;10.124;2024-03-07T12:51:42;102749.44;;;7.69;100.00
18652;BME280;9455;54.302;10.124;2024-03-07T12:54:09;102750.09;;;7.74;100.00